Terminal Aerodrome Forecast
Issued by NWS Brownsville, TX

Home | Current Version | Previous Version | Text Only | Print | Product List | Glossary On
Versions: 1 2 3 4 5 6 7 8 9 10 11 12 13 14 15 16
000
FTUS44 KBRO 271120
TAFHRL
TAF
KHRL 271120Z 2712/2812 16012G17KT P6SM BKN020
      TEMPO 2712/2714 SCT025
     FM271400 17018G24KT P6SM SCT025
     FM271800 16022G29KT P6SM FEW035 BKN250
     FM280100 14016KT P6SM SCT020 BKN250
     FM280400 16011KT P6SM OVC020=

USA.gov is the U.S. government's official web portal to all federal, state and local government web resources and services.